Time;durP1;ratioP1;P1;durP2;ratioP2;P2;SDS_P1;SDS_P2;PMS_P1;PMS_P2;Temp;Humidity;BMP_temperature;BMP_pressure;BME280_temperature;BME280_humidity;BME280_pressure;Samples;Min_cycle;Max_cycle;Signal;HPM_P1;HPM_P2
2022/12/07 00:01:27;;;;;;;6.18;4.13;;;;;;;;;;5072456;28;20028;-80
2022/12/07 00:03:54;;;;;;;7.25;4.15;;;;;;;;;;5083617;28;20020;-79
2022/12/07 00:06:20;;;;;;;8.48;5.00;;;;;;;;;;5079733;28;20086;-84
2022/12/07 00:08:46;;;;;;;5.10;4.22;;;;;;;;;;5074554;28;20020;-83
2022/12/07 00:11:14;;;;;;;5.93;4.20;;;;;;;;;;5063562;28;20048;-83
2022/12/07 00:13:40;;;;;;;6.75;4.35;;;;;;;;;;5077876;28;20474;-82
2022/12/07 00:16:08;;;;;;;7.55;4.45;;;;;;;;;;5058096;28;20103;-81
2022/12/07 00:18:34;;;;;;;7.35;4.53;;;;;;;;;;5073201;28;20025;-83
2022/12/07 00:21:09;;;;;;;7.35;4.40;;;;;;;;;;5076578;28;20020;-84
2022/12/07 00:23:34;;;;;;;9.40;4.93;;;;;;;;;;5056472;28;20043;-83
2022/12/07 00:26:17;;;;;;;9.35;5.45;;;;;;;;;;5059873;28;20537;-84
2022/12/07 00:28:51;;;;;;;8.82;5.28;;;;;;;;;;5077808;28;20032;-84
2022/12/07 00:31:19;;;;;;;14.70;4.32;;;;;;;;;;5076379;28;20032;-83
2022/12/07 00:33:45;;;;;;;9.48;4.05;;;;;;;;;;5090832;28;21894;-82
2022/12/07 00:36:13;;;;;;;7.78;4.38;;;;;;;;;;5057419;28;20118;-82
2022/12/07 00:38:39;;;;;;;7.93;5.03;;;;;;;;;;5073451;28;20028;-82
2022/12/07 00:41:16;;;;;;;7.20;4.85;;;;;;;;;;5074110;28;20116;-83
2022/12/07 00:43:42;;;;;;;6.15;3.97;;;;;;;;;;5065553;28;20047;-83
2022/12/07 00:46:09;;;;;;;6.40;4.25;;;;;;;;;;5079375;28;20028;-82
2022/12/07 00:48:34;;;;;;;13.10;4.65;;;;;;;;;;5076057;28;20021;-82
2022/12/07 00:51:00;;;;;;;5.60;3.95;;;;;;;;;;5074438;28;20020;-82
2022/12/07 00:53:26;;;;;;;7.45;4.05;;;;;;;;;;5074477;28;20541;-83
2022/12/07 00:55:52;;;;;;;7.78;4.60;;;;;;;;;;5057219;28;20052;-83
2022/12/07 00:58:18;;;;;;;6.32;4.35;;;;;;;;;;5077785;28;20028;-82
2022/12/07 01:00:43;;;;;;;6.78;4.68;;;;;;;;;;5082941;28;20031;-82
2022/12/07 01:03:11;;;;;;;13.20;4.65;;;;;;;;;;5058253;28;20051;-84
2022/12/07 01:05:37;;;;;;;7.53;4.20;;;;;;;;;;5079412;28;20431;-83
2022/12/07 01:08:03;;;;;;;10.68;5.40;;;;;;;;;;5077589;28;20033;-84
2022/12/07 01:10:30;;;;;;;11.07;5.38;;;;;;;;;;5072963;28;20032;-81
2022/12/07 01:12:56;;;;;;;7.15;4.40;;;;;;;;;;5076210;28;20021;-82
2022/12/07 01:15:21;;;;;;;7.25;4.45;;;;;;;;;;5081011;28;20081;-82
2022/12/07 01:17:47;;;;;;;7.18;4.43;;;;;;;;;;5066958;28;20440;-81
2022/12/07 01:20:12;;;;;;;8.25;5.15;;;;;;;;;;5074273;28;20037;-82
2022/12/07 01:22:39;;;;;;;9.20;4.60;;;;;;;;;;5081445;28;20032;-82
2022/12/07 01:25:05;;;;;;;8.27;4.40;;;;;;;;;;5072392;28;20060;-81
2022/12/07 01:27:32;;;;;;;7.68;4.57;;;;;;;;;;5077714;28;20028;-82
2022/12/07 01:29:58;;;;;;;8.27;5.50;;;;;;;;;;5068795;28;20034;-81
2022/12/07 01:32:23;;;;;;;8.30;5.00;;;;;;;;;;5078176;28;20028;-81
2022/12/07 01:34:49;;;;;;;7.78;4.60;;;;;;;;;;5075704;28;20478;-81
2022/12/07 01:37:14;;;;;;;6.65;4.25;;;;;;;;;;5076940;28;20135;-82
2022/12/07 01:39:41;;;;;;;6.28;4.30;;;;;;;;;;5078385;28;20029;-82
2022/12/07 01:42:11;;;;;;;8.70;4.93;;;;;;;;;;5071604;28;20024;-81
2022/12/07 01:45:14;;;;;;;7.68;4.43;;;;;;;;;;5057805;28;20032;-84
2022/12/07 01:47:43;;;;;;;7.55;4.65;;;;;;;;;;5061111;28;20050;-81
2022/12/07 01:50:09;;;;;;;7.93;4.10;;;;;;;;;;5081223;28;20058;-82
2022/12/07 01:52:36;;;;;;;8.38;4.40;;;;;;;;;;5080910;28;20482;-81
2022/12/07 01:55:09;;;;;;;7.47;4.97;;;;;;;;;;5077865;28;20028;-81
2022/12/07 01:57:39;;;;;;;10.35;4.25;;;;;;;;;;5087470;28;20086;-79
2022/12/07 02:00:07;;;;;;;6.05;4.07;;;;;;;;;;5082604;28;20004;-81
2022/12/07 02:02:35;;;;;;;6.15;3.83;;;;;;;;;;5089860;28;20020;-83
2022/12/07 02:05:03;;;;;;;5.70;4.50;;;;;;;;;;5075679;28;20120;-84
2022/12/07 02:07:29;;;;;;;7.25;4.70;;;;;;;;;;5082365;28;20064;-82
2022/12/07 02:09:55;;;;;;;9.80;4.82;;;;;;;;;;5076719;28;21377;-81
2022/12/07 02:12:23;;;;;;;5.88;3.95;;;;;;;;;;5074632;28;20047;-78
2022/12/07 02:14:49;;;;;;;5.43;4.03;;;;;;;;;;5086118;28;20051;-82
2022/12/07 02:17:29;;;;;;;5.00;4.03;;;;;;;;;;5063862;28;20031;-84
2022/12/07 02:20:03;;;;;;;7.65;4.65;;;;;;;;;;5057202;28;20089;-82
2022/12/07 02:22:54;;;;;;;9.75;4.70;;;;;;;;;;5076598;28;20111;-83
2022/12/07 02:25:32;;;;;;;6.55;3.72;;;;;;;;;;5082551;28;20024;-82
2022/12/07 02:28:29;;;;;;;6.03;4.18;;;;;;;;;;5080343;28;20039;-87
2022/12/07 02:30:58;;;;;;;8.30;3.78;;;;;;;;;;5079558;28;20025;-86
2022/12/07 02:33:43;;;;;;;6.72;3.95;;;;;;;;;;5080968;28;20033;-84
2022/12/07 02:36:17;;;;;;;5.55;4.05;;;;;;;;;;5068378;28;20483;-81
2022/12/07 02:38:51;;;;;;;5.53;3.72;;;;;;;;;;5073554;28;20115;-85
2022/12/07 02:41:31;;;;;;;7.60;3.55;;;;;;;;;;5075036;28;20028;-84
2022/12/07 02:44:16;;;;;;;5.97;3.45;;;;;;;;;;5060807;28;20383;-84
2022/12/07 02:46:52;;;;;;;8.02;4.22;;;;;;;;;;5078706;28;20029;-81
2022/12/07 02:49:19;;;;;;;6.75;3.58;;;;;;;;;;5062475;28;20025;-84
2022/12/07 02:51:46;;;;;;;6.30;3.80;;;;;;;;;;5061984;28;20049;-85
2022/12/07 02:54:17;;;;;;;4.75;3.13;;;;;;;;;;5076251;28;20039;-84
2022/12/07 02:56:50;;;;;;;6.70;4.03;;;;;;;;;;5077619;28;20039;-85
2022/12/07 02:59:16;;;;;;;5.63;3.97;;;;;;;;;;5062661;28;20027;-85
2022/12/07 03:01:59;;;;;;;7.97;3.17;;;;;;;;;;5076567;28;20028;-83
2022/12/07 03:04:44;;;;;;;7.80;4.57;;;;;;;;;;5071731;28;20058;-81
2022/12/07 03:07:20;;;;;;;9.82;3.20;;;;;;;;;;5076750;28;20027;-81
2022/12/07 03:10:02;;;;;;;6.38;4.10;;;;;;;;;;5054258;28;20029;-82
2022/12/07 03:12:45;;;;;;;6.15;3.90;;;;;;;;;;5076202;28;20029;-81
2022/12/07 03:15:15;;;;;;;7.80;3.65;;;;;;;;;;5070096;28;20063;-80
2022/12/07 03:17:42;;;;;;;5.10;3.83;;;;;;;;;;5054908;28;20024;-80
2022/12/07 03:22:39;;;;;;;11.63;3.80;;;;;;;;;;5071592;28;20056;-85
2022/12/07 03:25:10;;;;;;;6.30;4.00;;;;;;;;;;5069384;28;20039;-86
2022/12/07 03:27:44;;;;;;;7.40;4.25;;;;;;;;;;5080250;28;20025;-85
2022/12/07 03:30:15;;;;;;;6.28;3.85;;;;;;;;;;5064467;28;20024;-85
2022/12/07 03:32:45;;;;;;;6.57;4.00;;;;;;;;;;5080118;28;20052;-86
2022/12/07 03:35:32;;;;;;;9.90;4.05;;;;;;;;;;5076812;28;20044;-85
2022/12/07 03:38:00;;;;;;;6.07;4.20;;;;;;;;;;5060236;28;20032;-86
2022/12/07 03:40:25;;;;;;;7.80;4.32;;;;;;;;;;5060334;28;20096;-86
2022/12/07 03:42:52;;;;;;;7.38;4.25;;;;;;;;;;5072361;28;20052;-85
2022/12/07 03:45:17;;;;;;;6.75;4.30;;;;;;;;;;5072578;28;20501;-86
2022/12/07 03:47:50;;;;;;;4.55;3.53;;;;;;;;;;5081209;28;20032;-85
2022/12/07 03:50:27;;;;;;;8.27;4.43;;;;;;;;;;5075479;28;20103;-86
2022/12/07 03:52:56;;;;;;;6.72;4.57;;;;;;;;;;5078823;28;20031;-86
2022/12/07 03:55:29;;;;;;;7.53;4.22;;;;;;;;;;5058759;28;20028;-87
2022/12/07 03:58:02;;;;;;;5.82;4.10;;;;;;;;;;5077620;28;20029;-87
2022/12/07 04:00:28;;;;;;;7.93;4.60;;;;;;;;;;5066069;28;20481;-86
2022/12/07 04:02:55;;;;;;;6.97;4.05;;;;;;;;;;5086919;28;20085;-84
2022/12/07 04:05:20;;;;;;;5.97;4.00;;;;;;;;;;5083781;28;20036;-85
2022/12/07 04:07:46;;;;;;;8.82;4.55;;;;;;;;;;5083550;28;20039;-85
2022/12/07 04:10:11;;;;;;;8.38;5.20;;;;;;;;;;5097054;28;20050;-85
2022/12/07 04:12:37;;;;;;;7.97;4.40;;;;;;;;;;5078418;28;20043;-86
2022/12/07 04:15:03;;;;;;;7.47;4.55;;;;;;;;;;5080139;28;20020;-85
2022/12/07 04:17:29;;;;;;;8.55;5.05;;;;;;;;;;5057013;28;20126;-86
2022/12/07 04:19:54;;;;;;;9.80;6.05;;;;;;;;;;5060371;28;20131;-87
2022/12/07 04:22:19;;;;;;;9.07;4.80;;;;;;;;;;5066999;28;20126;-87
2022/12/07 04:24:45;;;;;;;8.65;5.10;;;;;;;;;;5083446;28;20082;-87
2022/12/07 04:27:10;;;;;;;9.70;5.05;;;;;;;;;;5083716;28;20036;-86
2022/12/07 04:29:35;;;;;;;7.32;4.30;;;;;;;;;;5081967;28;20094;-86
2022/12/07 04:32:01;;;;;;;7.13;4.68;;;;;;;;;;5059632;28;20048;-85
2022/12/07 04:34:26;;;;;;;11.43;4.63;;;;;;;;;;5071702;28;20085;-87
2022/12/07 04:36:52;;;;;;;8.05;4.13;;;;;;;;;;5062130;28;20082;-86
2022/12/07 04:39:24;;;;;;;10.75;3.95;;;;;;;;;;5058476;28;20027;-86
2022/12/07 04:41:50;;;;;;;10.20;4.22;;;;;;;;;;5071385;28;20599;-85
2022/12/07 04:44:15;;;;;;;7.78;4.53;;;;;;;;;;5076342;28;20502;-86
2022/12/07 04:46:42;;;;;;;7.45;4.25;;;;;;;;;;5054497;28;20386;-86
2022/12/07 04:49:07;;;;;;;4.75;2.90;;;;;;;;;;5069234;28;20012;-87
2022/12/07 04:51:33;;;;;;;6.40;3.33;;;;;;;;;;5059062;28;20103;-87
2022/12/07 04:53:58;;;;;;;6.50;3.15;;;;;;;;;;5074757;28;20028;-85
2022/12/07 04:56:24;;;;;;;6.97;3.28;;;;;;;;;;5080403;28;20037;-85
2022/12/07 04:58:52;;;;;;;7.07;3.20;;;;;;;;;;5071382;28;20028;-86
2022/12/07 05:01:18;;;;;;;6.30;4.20;;;;;;;;;;5063573;28;20486;-87
2022/12/07 05:03:44;;;;;;;4.32;3.15;;;;;;;;;;5059239;28;20035;-86
2022/12/07 05:06:11;;;;;;;6.47;3.08;;;;;;;;;;5078151;28;20108;-82
2022/12/07 05:08:36;;;;;;;6.72;3.78;;;;;;;;;;5060074;28;20032;-87
2022/12/07 05:11:01;;;;;;;6.20;3.80;;;;;;;;;;5090572;23;20049;-87
2022/12/07 05:13:27;;;;;;;7.40;4.47;;;;;;;;;;5035259;28;20087;-87
2022/12/07 05:15:53;;;;;;;9.88;3.88;;;;;;;;;;5028829;28;20018;-87
2022/12/07 05:18:18;;;;;;;4.47;3.20;;;;;;;;;;5017683;28;20021;-87
2022/12/07 05:20:44;;;;;;;4.88;3.72;;;;;;;;;;5046195;28;20025;-87
2022/12/07 05:23:10;;;;;;;5.53;3.75;;;;;;;;;;5049654;28;20150;-88
2022/12/07 05:25:35;;;;;;;5.20;3.65;;;;;;;;;;5051408;28;20036;-87
2022/12/07 05:28:01;;;;;;;5.53;3.25;;;;;;;;;;5055497;28;20025;-87
2022/12/07 05:30:27;;;;;;;5.00;3.47;;;;;;;;;;5054507;28;20173;-88
2022/12/07 05:32:52;;;;;;;5.85;4.05;;;;;;;;;;5057245;28;20091;-88
2022/12/07 05:35:19;;;;;;;6.07;3.95;;;;;;;;;;5056072;28;20122;-87
2022/12/07 05:37:45;;;;;;;9.05;3.97;;;;;;;;;;5060315;28;20092;-88
2022/12/07 05:40:12;;;;;;;4.72;3.55;;;;;;;;;;5039887;28;20027;-88
2022/12/07 05:42:38;;;;;;;7.22;4.00;;;;;;;;;;5066494;28;20474;-87
2022/12/07 05:45:04;;;;;;;7.13;3.70;;;;;;;;;;5058735;28;20031;-86
2022/12/07 05:47:29;;;;;;;6.07;3.67;;;;;;;;;;5056696;28;20033;-87
2022/12/07 05:49:55;;;;;;;9.38;3.75;;;;;;;;;;5058431;28;20447;-87
2022/12/07 05:52:20;;;;;;;6.75;4.35;;;;;;;;;;5067992;28;20029;-87
2022/12/07 05:54:46;;;;;;;8.30;3.83;;;;;;;;;;5059164;28;20048;-88
2022/12/07 05:57:11;;;;;;;7.65;3.88;;;;;;;;;;5056480;28;20036;-88
2022/12/07 05:59:37;;;;;;;6.30;3.90;;;;;;;;;;5054732;28;20021;-87
2022/12/07 06:02:14;;;;;;;9.88;4.00;;;;;;;;;;5055770;28;20071;-88
2022/12/07 06:04:43;;;;;;;9.52;4.72;;;;;;;;;;5056696;28;20040;-87
2022/12/07 06:07:10;;;;;;;6.22;3.65;;;;;;;;;;5056258;28;20028;-87
2022/12/07 06:09:36;;;;;;;6.78;4.28;;;;;;;;;;5056398;28;20079;-87
2022/12/07 06:14:47;;;;;;;8.93;4.25;;;;;;;;;;5065707;28;20378;-88
2022/12/07 06:17:13;;;;;;;7.10;4.07;;;;;;;;;;5049985;28;20116;-89
2022/12/07 06:19:39;;;;;;;8.75;4.88;;;;;;;;;;5060313;28;20219;-87
2022/12/07 06:22:04;;;;;;;7.60;4.18;;;;;;;;;;5040649;28;20021;-88
2022/12/07 06:24:31;;;;;;;5.57;3.28;;;;;;;;;;5056516;28;20025;-87
2022/12/07 06:26:57;;;;;;;7.38;3.03;;;;;;;;;;5078227;28;20016;-88
2022/12/07 06:29:22;;;;;;;4.97;3.30;;;;;;;;;;5057334;28;20056;-87
2022/12/07 06:31:48;;;;;;;7.68;3.75;;;;;;;;;;5066180;28;20063;-87
2022/12/07 06:34:19;;;;;;;4.75;3.47;;;;;;;;;;5072009;28;20112;-87
2022/12/07 06:36:45;;;;;;;5.95;3.83;;;;;;;;;;5066263;28;20037;-90
2022/12/07 06:39:11;;;;;;;5.68;3.25;;;;;;;;;;5071204;28;20027;-89
2022/12/07 06:41:38;;;;;;;4.82;3.20;;;;;;;;;;5069131;28;20021;-88
2022/12/07 06:44:05;;;;;;;7.68;3.58;;;;;;;;;;5070162;28;20063;-87
2022/12/07 06:46:30;;;;;;;4.68;3.42;;;;;;;;;;5069544;28;20056;-87
2022/12/07 06:48:56;;;;;;;7.70;3.72;;;;;;;;;;5059428;28;20025;-86
2022/12/07 06:51:22;;;;;;;4.32;2.90;;;;;;;;;;5053599;28;20020;-86
2022/12/07 06:53:47;;;;;;;3.67;2.72;;;;;;;;;;5069882;28;20144;-86
2022/12/07 06:56:12;;;;;;;6.85;3.95;;;;;;;;;;5055194;28;20033;-87
2022/12/07 06:58:39;;;;;;;3.78;2.72;;;;;;;;;;5054310;28;20051;-86
2022/12/07 07:01:12;;;;;;;4.55;3.15;;;;;;;;;;5052669;28;20063;-87
2022/12/07 07:03:38;;;;;;;5.05;3.03;;;;;;;;;;5043114;28;20029;-87
2022/12/07 07:06:04;;;;;;;4.10;2.75;;;;;;;;;;5055253;28;20079;-87
2022/12/07 07:08:29;;;;;;;6.25;3.67;;;;;;;;;;5053790;28;20020;-87
2022/12/07 07:10:54;;;;;;;7.03;3.10;;;;;;;;;;5056392;28;20029;-86
2022/12/07 07:13:20;;;;;;;6.05;3.55;;;;;;;;;;5064234;28;20028;-87
2022/12/07 07:15:45;;;;;;;5.15;3.05;;;;;;;;;;5056386;28;20024;-87
2022/12/07 07:18:11;;;;;;;4.50;2.92;;;;;;;;;;5056661;28;20167;-86
2022/12/07 07:20:37;;;;;;;3.50;2.78;;;;;;;;;;5054802;28;20029;-86
2022/12/07 07:23:02;;;;;;;4.75;3.38;;;;;;;;;;5055130;28;20081;-86
2022/12/07 07:25:28;;;;;;;3.08;2.30;;;;;;;;;;5056475;28;20118;-85
2022/12/07 07:27:53;;;;;;;10.82;3.70;;;;;;;;;;5060263;28;20021;-87
2022/12/07 07:30:19;;;;;;;3.30;2.33;;;;;;;;;;5054744;28;20040;-87
2022/12/07 07:32:44;;;;;;;9.57;4.03;;;;;;;;;;5048840;28;20025;-87
2022/12/07 07:35:10;;;;;;;5.55;3.40;;;;;;;;;;5055635;28;20032;-88
2022/12/07 07:37:35;;;;;;;12.13;3.33;;;;;;;;;;5050435;28;20033;-86
2022/12/07 07:40:00;;;;;;;6.43;3.45;;;;;;;;;;5057525;28;20025;-85
2022/12/07 07:42:26;;;;;;;6.80;3.13;;;;;;;;;;5073474;28;20059;-86
2022/12/07 07:44:51;;;;;;;5.05;3.15;;;;;;;;;;5062450;28;20043;-85
2022/12/07 07:47:16;;;;;;;3.30;2.47;;;;;;;;;;5054912;28;20021;-86
2022/12/07 07:49:42;;;;;;;4.20;2.90;;;;;;;;;;5064026;28;20021;-87
2022/12/07 07:52:07;;;;;;;6.47;2.75;;;;;;;;;;5056050;28;20032;-86
2022/12/07 07:54:32;;;;;;;4.20;2.67;;;;;;;;;;5061284;28;20033;-87
2022/12/07 07:56:58;;;;;;;4.53;3.05;;;;;;;;;;5051883;28;20029;-87
2022/12/07 07:59:25;;;;;;;4.00;2.53;;;;;;;;;;5058362;28;20411;-88
2022/12/07 08:01:50;;;;;;;4.97;2.92;;;;;;;;;;5059470;28;20029;-89
2022/12/07 08:04:16;;;;;;;7.18;3.13;;;;;;;;;;5072663;28;20086;-88
2022/12/07 08:06:42;;;;;;;2.58;2.20;;;;;;;;;;5058131;28;20048;-88
2022/12/07 08:09:08;;;;;;;5.28;2.60;;;;;;;;;;5060673;28;20356;-87
2022/12/07 08:11:34;;;;;;;3.97;2.63;;;;;;;;;;5046991;28;20460;-89
2022/12/07 08:13:59;;;;;;;3.35;2.72;;;;;;;;;;5061099;28;20029;-90
2022/12/07 08:16:24;;;;;;;2.80;2.20;;;;;;;;;;5073032;28;20029;-89
2022/12/07 08:18:50;;;;;;;5.00;2.83;;;;;;;;;;5064546;28;20035;-89
2022/12/07 08:21:15;;;;;;;5.95;2.40;;;;;;;;;;5072655;28;20382;-89
2022/12/07 08:23:41;;;;;;;4.07;3.00;;;;;;;;;;5060877;28;20041;-89
2022/12/07 08:26:12;;;;;;;3.88;2.88;;;;;;;;;;5079760;28;20033;-89
2022/12/07 08:28:39;;;;;;;3.40;2.58;;;;;;;;;;5081716;28;20024;-89
2022/12/07 08:31:14;;;;;;;4.97;2.58;;;;;;;;;;5072910;28;20043;-89
2022/12/07 08:33:39;;;;;;;3.53;2.60;;;;;;;;;;5074577;28;20013;-89
2022/12/07 08:36:07;;;;;;;6.30;2.72;;;;;;;;;;5078911;28;20050;-89
2022/12/07 08:38:37;;;;;;;13.38;3.15;;;;;;;;;;5065108;28;20025;-89
2022/12/07 08:41:06;;;;;;;5.10;2.90;;;;;;;;;;5072750;28;20021;-89
2022/12/07 08:43:32;;;;;;;4.25;2.78;;;;;;;;;;5075067;28;20021;-88
2022/12/07 08:46:12;;;;;;;4.43;2.75;;;;;;;;;;5066888;28;20017;-89
2022/12/07 08:48:42;;;;;;;5.93;2.88;;;;;;;;;;5060680;28;20025;-88
2022/12/07 08:51:08;;;;;;;7.25;3.20;;;;;;;;;;5059469;28;20088;-88
2022/12/07 08:53:34;;;;;;;4.40;3.05;;;;;;;;;;5059794;28;20064;-88
2022/12/07 08:56:00;;;;;;;5.18;2.65;;;;;;;;;;5071763;28;20085;-88
2022/12/07 08:58:25;;;;;;;4.30;2.85;;;;;;;;;;5062981;28;20123;-89
2022/12/07 09:00:50;;;;;;;4.15;2.88;;;;;;;;;;5057285;28;20028;-88
2022/12/07 09:03:16;;;;;;;4.75;2.95;;;;;;;;;;5070958;28;20056;-88
2022/12/07 09:05:42;;;;;;;5.38;3.25;;;;;;;;;;5073220;28;20056;-89
2022/12/07 09:08:08;;;;;;;8.00;3.22;;;;;;;;;;5081581;28;20045;-88
2022/12/07 09:10:33;;;;;;;4.75;3.38;;;;;;;;;;5079551;28;20029;-88
2022/12/07 09:13:00;;;;;;;5.22;2.95;;;;;;;;;;5076050;28;20028;-89
2022/12/07 09:15:27;;;;;;;5.20;3.10;;;;;;;;;;5076659;28;20032;-89
2022/12/07 09:17:53;;;;;;;5.03;2.70;;;;;;;;;;5075894;28;20056;-89
2022/12/07 09:20:18;;;;;;;4.10;2.80;;;;;;;;;;5075419;28;20167;-89
2022/12/07 09:22:44;;;;;;;4.93;2.30;;;;;;;;;;5076530;28;20081;-89
2022/12/07 09:25:09;;;;;;;4.10;2.53;;;;;;;;;;5088974;28;20016;-89
2022/12/07 09:27:35;;;;;;;6.07;2.70;;;;;;;;;;5072506;28;20052;-87
2022/12/07 09:30:01;;;;;;;3.83;2.42;;;;;;;;;;5071248;28;20021;-89
2022/12/07 09:32:26;;;;;;;5.00;2.40;;;;;;;;;;5076408;28;20013;-89
2022/12/07 09:34:52;;;;;;;5.00;2.50;;;;;;;;;;5070765;28;20036;-88
2022/12/07 09:37:17;;;;;;;2.70;2.13;;;;;;;;;;5063973;28;20025;-89
2022/12/07 09:39:42;;;;;;;3.70;1.58;;;;;;;;;;5065971;28;20017;-88
2022/12/07 09:42:10;;;;;;;2.47;1.80;;;;;;;;;;5069070;28;20040;-89
2022/12/07 09:44:35;;;;;;;3.15;2.53;;;;;;;;;;5080776;28;20039;-89
2022/12/07 09:47:02;;;;;;;5.22;2.15;;;;;;;;;;5063902;28;20041;-89
2022/12/07 09:49:30;;;;;;;3.35;2.22;;;;;;;;;;5061745;28;20090;-88
2022/12/07 09:52:05;;;;;;;4.47;2.55;;;;;;;;;;5055247;28;20044;-89
2022/12/07 09:54:33;;;;;;;8.77;2.13;;;;;;;;;;5047743;28;20033;-88
2022/12/07 09:56:59;;;;;;;3.13;2.10;;;;;;;;;;5064391;28;20112;-88
2022/12/07 09:59:25;;;;;;;4.82;2.67;;;;;;;;;;5058698;28;20051;-88
2022/12/07 10:01:50;;;;;;;3.25;2.13;;;;;;;;;;5067059;28;20036;-87
2022/12/07 10:04:20;;;;;;;6.80;2.30;;;;;;;;;;5053877;28;20029;-88
2022/12/07 10:06:47;;;;;;;5.18;2.47;;;;;;;;;;5067460;28;20025;-88
2022/12/07 10:09:15;;;;;;;4.60;2.83;;;;;;;;;;5064210;28;20386;-88
2022/12/07 10:12:10;;;;;;;3.72;2.28;;;;;;;;;;5054206;28;20025;-88
2022/12/07 10:14:52;;;;;;;4.80;2.55;;;;;;;;;;5051686;28;20028;-87
2022/12/07 10:17:31;;;;;;;9.50;2.65;;;;;;;;;;5066983;28;20029;-88
2022/12/07 10:20:28;;;;;;;3.10;2.30;;;;;;;;;;5057540;28;20056;-88
2022/12/07 10:22:58;;;;;;;5.75;2.28;;;;;;;;;;5029656;28;20025;-88
2022/12/07 10:25:28;;;;;;;4.22;2.08;;;;;;;;;;5055225;28;20116;-88
2022/12/07 10:28:02;;;;;;;3.22;2.10;;;;;;;;;;5058814;28;20025;-88
2022/12/07 10:30:29;;;;;;;2.10;1.90;;;;;;;;;;5072643;28;20025;-89
2022/12/07 10:32:55;;;;;;;2.15;1.88;;;;;;;;;;5059350;28;20079;-88
2022/12/07 10:35:29;;;;;;;2.85;2.10;;;;;;;;;;5057663;28;20052;-88
2022/12/07 10:37:57;;;;;;;2.60;2.13;;;;;;;;;;5056918;28;20056;-88
2022/12/07 10:40:34;;;;;;;2.80;1.48;;;;;;;;;;5060492;28;20024;-88
2022/12/07 10:43:12;;;;;;;1.50;1.40;;;;;;;;;;5059891;28;20029;-90
2022/12/07 10:45:49;;;;;;;1.60;1.33;;;;;;;;;;5063962;28;20036;-89
2022/12/07 10:49:00;;;;;;;2.88;1.85;;;;;;;;;;5049592;28;20083;-87
2022/12/07 10:51:51;;;;;;;1.70;1.60;;;;;;;;;;5062183;28;20041;-88
2022/12/07 10:54:42;;;;;;;1.50;1.40;;;;;;;;;;5049594;28;20374;-87
2022/12/07 10:57:22;;;;;;;1.67;1.50;;;;;;;;;;5057408;28;20025;-88
2022/12/07 11:00:06;;;;;;;1.58;1.25;;;;;;;;;;5055996;28;20013;-87
2022/12/07 11:03:02;;;;;;;1.40;1.30;;;;;;;;;;5054532;28;20020;-87
2022/12/07 11:05:48;;;;;;;1.60;1.02;;;;;;;;;;5052266;28;20041;-87
2022/12/07 11:08:38;;;;;;;2.97;1.42;;;;;;;;;;5062477;28;20022;-88
2022/12/07 11:11:18;;;;;;;2.15;1.63;;;;;;;;;;5054871;28;20519;-88
2022/12/07 11:14:07;;;;;;;2.13;1.65;;;;;;;;;;5066523;28;20097;-88
2022/12/07 11:16:36;;;;;;;3.92;1.85;;;;;;;;;;5058846;28;20075;-87
2022/12/07 11:19:07;;;;;;;2.42;1.65;;;;;;;;;;5056179;28;20032;-88
2022/12/07 11:22:05;;;;;;;2.53;1.70;;;;;;;;;;5054859;28;20564;-88
2022/12/07 11:24:57;;;;;;;2.45;1.63;;;;;;;;;;5051373;28;20040;-87
2022/12/07 11:27:55;;;;;;;3.90;2.55;;;;;;;;;;5053435;28;20028;-88
2022/12/07 11:30:50;;;;;;;4.85;1.65;;;;;;;;;;5017597;28;20475;-88
2022/12/07 11:33:37;;;;;;;3.95;2.47;;;;;;;;;;5052201;28;20415;-88
2022/12/07 11:36:11;;;;;;;4.70;3.00;;;;;;;;;;5050661;28;20029;-88
2022/12/07 11:38:52;;;;;;;5.30;2.83;;;;;;;;;;5047177;28;20048;-89
2022/12/07 11:41:25;;;;;;;4.93;2.78;;;;;;;;;;5037198;28;20033;-89
2022/12/07 11:44:16;;;;;;;4.93;3.50;;;;;;;;;;5044447;28;20028;-88
2022/12/07 11:46:53;;;;;;;3.75;2.35;;;;;;;;;;5041082;28;20025;-87
2022/12/07 11:50:01;;;;;;;8.07;3.45;;;;;;;;;;5043327;28;20044;-88
2022/12/07 11:52:56;;;;;;;3.67;2.85;;;;;;;;;;5029346;28;20033;-88
2022/12/07 11:55:29;;;;;;;4.45;2.65;;;;;;;;;;5061500;28;20024;-88
2022/12/07 11:58:04;;;;;;;4.00;2.83;;;;;;;;;;5090357;28;20127;-89
2022/12/07 12:00:32;;;;;;;4.43;2.47;;;;;;;;;;5072134;28;20039;-89
2022/12/07 12:03:11;;;;;;;3.45;2.65;;;;;;;;;;5047082;28;20028;-88
2022/12/07 12:05:38;;;;;;;6.20;3.72;;;;;;;;;;5056714;28;20025;-89
2022/12/07 12:08:24;;;;;;;2.33;1.73;;;;;;;;;;5073810;28;20496;-89
2022/12/07 12:11:00;;;;;;;4.63;3.20;;;;;;;;;;5073600;28;20035;-89
2022/12/07 12:13:36;;;;;;;10.27;3.70;;;;;;;;;;5051357;28;20688;-88
2022/12/07 12:16:24;;;;;;;3.67;2.78;;;;;;;;;;5054035;28;20490;-89
2022/12/07 12:19:03;;;;;;;3.38;2.65;;;;;;;;;;5030751;28;20055;-88
2022/12/07 12:21:30;;;;;;;4.95;3.05;;;;;;;;;;5051162;28;20036;-88
2022/12/07 12:24:01;;;;;;;4.00;2.90;;;;;;;;;;5061695;28;20029;-87
2022/12/07 12:26:31;;;;;;;3.50;2.40;;;;;;;;;;5053161;28;20025;-88
2022/12/07 12:28:59;;;;;;;5.35;2.85;;;;;;;;;;5044162;28;20060;-87
2022/12/07 12:31:27;;;;;;;5.38;3.00;;;;;;;;;;5043421;28;20442;-88
2022/12/07 12:33:55;;;;;;;3.55;2.58;;;;;;;;;;5051998;28;20083;-87
2022/12/07 12:36:39;;;;;;;5.60;3.22;;;;;;;;;;5046575;28;20040;-87
2022/12/07 12:39:08;;;;;;;6.43;3.10;;;;;;;;;;5051533;28;20025;-88
2022/12/07 12:41:38;;;;;;;8.77;2.92;;;;;;;;;;5049903;28;20156;-88
2022/12/07 13:08:54;;;;;;;7.30;3.13;;;;;;;;;;5063209;28;20040;-89
2022/12/07 13:25:12;;;;;;;5.57;3.15;;;;;;;;;;5028439;28;20041;-89
2022/12/07 13:27:41;;;;;;;4.95;3.38;;;;;;;;;;5051672;28;20119;-89
2022/12/07 13:30:17;;;;;;;7.63;3.95;;;;;;;;;;5053632;28;20103;-90
2022/12/07 13:32:50;;;;;;;5.68;3.65;;;;;;;;;;5062386;28;20029;-90
2022/12/07 13:35:29;;;;;;;7.00;3.47;;;;;;;;;;5053686;28;20082;-90
2022/12/07 13:37:55;;;;;;;7.30;4.10;;;;;;;;;;5058052;28;20024;-90
2022/12/07 13:40:22;;;;;;;7.20;4.38;;;;;;;;;;5068403;28;20020;-90
2022/12/07 13:42:57;;;;;;;6.85;4.22;;;;;;;;;;5053943;28;20029;-89
2022/12/07 13:45:48;;;;;;;7.65;4.35;;;;;;;;;;5055791;28;20175;-90
2022/12/07 13:48:43;;;;;;;8.57;4.55;;;;;;;;;;5061110;28;20169;-90
2022/12/07 13:51:17;;;;;;;10.57;4.28;;;;;;;;;;5053295;28;20029;-90
2022/12/07 13:53:51;;;;;;;9.98;3.58;;;;;;;;;;5051760;28;20036;-90
2022/12/07 13:56:16;;;;;;;5.45;3.95;;;;;;;;;;5058645;28;20028;-90
2022/12/07 13:58:42;;;;;;;9.50;4.35;;;;;;;;;;5051396;28;20037;-89
2022/12/07 14:01:08;;;;;;;8.10;4.38;;;;;;;;;;5044617;28;20165;-91
2022/12/07 14:03:35;;;;;;;7.68;4.45;;;;;;;;;;5043200;28;20364;-90
2022/12/07 14:06:06;;;;;;;8.38;4.97;;;;;;;;;;5057268;28;20083;-90
2022/12/07 14:08:31;;;;;;;10.20;3.92;;;;;;;;;;5060441;28;20086;-90
2022/12/07 14:10:58;;;;;;;4.68;3.60;;;;;;;;;;5049274;28;20021;-90
2022/12/07 14:13:42;;;;;;;6.25;4.15;;;;;;;;;;5051511;28;20029;-90
2022/12/07 14:16:28;;;;;;;5.05;3.58;;;;;;;;;;5048142;28;20017;-89
2022/12/07 14:18:56;;;;;;;5.82;4.18;;;;;;;;;;5058176;28;20029;-90
2022/12/07 14:21:27;;;;;;;6.03;3.65;;;;;;;;;;5047004;28;20052;-90
2022/12/07 14:24:07;;;;;;;4.03;2.88;;;;;;;;;;5048314;28;20026;-91
2022/12/07 14:26:33;;;;;;;5.35;2.78;;;;;;;;;;5044614;28;20117;-90
2022/12/07 14:29:27;;;;;;;10.73;3.35;;;;;;;;;;5051116;28;20053;-90
2022/12/07 14:31:53;;;;;;;8.55;3.22;;;;;;;;;;5056616;28;20048;-90
2022/12/07 14:34:22;;;;;;;7.65;4.38;;;;;;;;;;5064861;28;20759;-89
2022/12/07 14:36:47;;;;;;;6.20;3.65;;;;;;;;;;5050580;28;20045;-90
2022/12/07 14:39:13;;;;;;;5.18;3.63;;;;;;;;;;5052862;28;20056;-90
2022/12/07 14:41:50;;;;;;;9.25;4.47;;;;;;;;;;5047300;28;20029;-90
2022/12/07 14:44:16;;;;;;;7.72;4.22;;;;;;;;;;5052515;28;20105;-90
2022/12/07 14:46:42;;;;;;;9.88;5.15;;;;;;;;;;5051717;28;20032;-90
2022/12/07 14:49:07;;;;;;;13.15;4.70;;;;;;;;;;5050323;28;20028;-90
2022/12/07 14:51:37;;;;;;;6.65;3.97;;;;;;;;;;5051152;28;20027;-90
2022/12/07 14:54:05;;;;;;;7.72;4.30;;;;;;;;;;5059308;28;20350;-89
2022/12/07 14:56:30;;;;;;;7.47;4.13;;;;;;;;;;5051764;28;20087;-91
2022/12/07 14:58:56;;;;;;;9.15;4.35;;;;;;;;;;5053235;28;20446;-91
2022/12/07 15:01:21;;;;;;;8.77;4.43;;;;;;;;;;5056554;28;20025;-91
2022/12/07 15:03:47;;;;;;;5.78;3.70;;;;;;;;;;5051269;28;20028;-90
2022/12/07 15:06:17;;;;;;;14.98;4.38;;;;;;;;;;5058834;28;20112;-89
2022/12/07 15:08:44;;;;;;;7.00;3.85;;;;;;;;;;5051871;28;20192;-89
2022/12/07 15:11:19;;;;;;;16.45;10.60;;;;;;;;;;5050936;28;20029;-90
2022/12/07 15:16:30;;;;;;;7.47;4.30;;;;;;;;;;5054209;28;20493;-90
2022/12/07 15:18:55;;;;;;;6.57;3.58;;;;;;;;;;5056550;28;20135;-90
2022/12/07 15:21:21;;;;;;;8.82;4.15;;;;;;;;;;5038967;28;20017;-90
2022/12/07 15:23:47;;;;;;;6.95;4.10;;;;;;;;;;5051303;28;20031;-90
2022/12/07 15:26:13;;;;;;;7.95;4.60;;;;;;;;;;5052408;28;20028;-90
2022/12/07 15:28:39;;;;;;;18.60;4.78;;;;;;;;;;5053671;28;20028;-90
2022/12/07 15:31:14;;;;;;;8.73;4.68;;;;;;;;;;5056564;28;20067;-90
2022/12/07 15:33:40;;;;;;;6.80;3.85;;;;;;;;;;5056669;28;20028;-91
2022/12/07 15:36:06;;;;;;;7.50;4.22;;;;;;;;;;5056077;28;20032;-90
2022/12/07 15:38:32;;;;;;;8.82;4.85;;;;;;;;;;5054522;28;20036;-90
2022/12/07 15:40:57;;;;;;;10.20;5.10;;;;;;;;;;5055195;28;20555;-89
2022/12/07 15:46:07;;;;;;;9.32;5.43;;;;;;;;;;5048851;28;20082;-89
2022/12/07 15:48:32;;;;;;;8.75;4.32;;;;;;;;;;5059429;28;20025;-90
2022/12/07 15:51:06;;;;;;;7.50;4.35;;;;;;;;;;5074827;28;20024;-90